Time;durP1;ratioP1;P1;durP2;ratioP2;P2;SDS_P1;SDS_P2;PMS_P1;PMS_P2;Temp;Humidity;BMP_temperature;BMP_pressure;BME280_temperature;BME280_humidity;BME280_pressure;Samples;Min_cycle;Max_cycle;Signal;HPM_P1;HPM_P2
2022/08/18 00:00:05;;;;;;;3.78;3.47;;;19.10;99.90;;;;;;4941514;29;20488;-49
2022/08/18 00:02:30;;;;;;;3.80;3.50;;;19.10;99.90;;;;;;4943508;28;20037;-49
2022/08/18 00:04:56;;;;;;;4.53;3.88;;;19.00;99.90;;;;;;4935306;28;20555;-49
2022/08/18 00:07:28;;;;;;;3.55;3.33;;;19.00;99.90;;;;;;4949800;28;20396;-51
2022/08/18 00:09:54;;;;;;;3.42;3.13;;;19.00;99.90;;;;;;4941540;29;20035;-51
2022/08/18 00:12:25;;;;;;;3.55;3.25;;;19.10;99.90;;;;;;4950256;28;20106;-52
2022/08/18 00:14:52;;;;;;;3.95;3.63;;;19.00;99.90;;;;;;4942738;29;20023;-49
2022/08/18 00:17:18;;;;;;;4.07;3.67;;;19.00;99.90;;;;;;4946950;28;20019;-52
2022/08/18 00:19:43;;;;;;;4.20;3.90;;;19.00;99.90;;;;;;4946977;28;20536;-50
2022/08/18 00:22:12;;;;;;;5.43;3.50;;;19.00;99.90;;;;;;4944935;28;20399;-49
2022/08/18 00:24:38;;;;;;;4.97;3.85;;;19.00;99.90;;;;;;4940196;28;20407;-48
2022/08/18 00:27:04;;;;;;;3.90;3.50;;;18.90;99.90;;;;;;4942069;29;20084;-49
2022/08/18 00:29:30;;;;;;;4.63;3.83;;;18.90;99.90;;;;;;4942474;28;20433;-49
2022/08/18 00:31:56;;;;;;;4.63;4.22;;;18.90;99.90;;;;;;4938521;28;20028;-48
2022/08/18 00:34:22;;;;;;;4.10;3.80;;;18.90;99.90;;;;;;4945880;28;20023;-50
2022/08/18 00:36:49;;;;;;;3.95;3.63;;;18.90;99.90;;;;;;4927848;29;20027;-51
2022/08/18 00:39:15;;;;;;;4.50;3.65;;;18.80;99.90;;;;;;4935214;29;20023;-49
2022/08/18 00:41:41;;;;;;;4.40;4.00;;;18.90;99.90;;;;;;4943531;29;20031;-48
2022/08/18 00:44:07;;;;;;;4.47;4.15;;;18.90;99.90;;;;;;4944356;28;20031;-51
2022/08/18 00:46:35;;;;;;;4.00;3.70;;;18.80;99.90;;;;;;4942502;29;20419;-50
2022/08/18 00:49:02;;;;;;;4.15;3.72;;;18.80;99.90;;;;;;4944612;28;20082;-49
2022/08/18 00:51:41;;;;;;;4.50;4.10;;;18.80;99.90;;;;;;4947296;29;20016;-50
2022/08/18 00:54:30;;;;;;;4.70;4.30;;;18.80;99.90;;;;;;4941443;28;20110;-53
2022/08/18 00:57:02;;;;;;;5.68;4.30;;;18.80;99.90;;;;;;4936677;29;20020;-51
2022/08/18 00:59:42;;;;;;;4.35;4.00;;;18.80;99.90;;;;;;4945516;28;20099;-54
2022/08/18 01:02:14;;;;;;;4.30;3.88;;;18.70;99.90;;;;;;4942946;29;20126;-53
2022/08/18 01:05:14;;;;;;;3.80;3.50;;;18.80;99.90;;;;;;4944690;28;20032;-51
2022/08/18 01:07:46;;;;;;;4.45;3.78;;;18.70;99.90;;;;;;4939305;29;20031;-50
2022/08/18 01:10:15;;;;;;;3.92;3.63;;;18.70;99.90;;;;;;4941086;28;20504;-50
2022/08/18 01:12:46;;;;;;;4.03;3.40;;;18.70;99.90;;;;;;4944760;28;20031;-51
2022/08/18 01:15:12;;;;;;;4.95;4.15;;;18.70;99.90;;;;;;4944728;28;20503;-50
2022/08/18 01:23:26;;;;;;;4.30;3.72;;;18.70;99.90;;;;;;4937840;29;20580;-49
2022/08/18 01:25:58;;;;;;;5.07;4.38;;;18.70;99.90;;;;;;4942493;29;20027;-50
2022/08/18 01:28:32;;;;;;;3.60;3.30;;;18.60;99.90;;;;;;4947086;28;20377;-51
2022/08/18 01:30:59;;;;;;;4.60;3.80;;;18.70;99.90;;;;;;4943317;29;20498;-49
2022/08/18 01:33:31;;;;;;;7.53;4.03;;;18.60;99.90;;;;;;4947566;28;20027;-50
2022/08/18 01:36:03;;;;;;;4.35;3.83;;;18.60;99.90;;;;;;4943517;29;20024;-51
2022/08/18 01:38:30;;;;;;;4.38;3.17;;;18.60;99.90;;;;;;4948224;28;20035;-53
2022/08/18 01:40:57;;;;;;;4.07;3.72;;;18.60;99.90;;;;;;4940472;29;20476;-50
2022/08/18 01:43:23;;;;;;;6.22;4.45;;;18.60;99.90;;;;;;4944668;28;20051;-50
2022/08/18 01:45:49;;;;;;;4.55;3.90;;;18.60;99.90;;;;;;4942700;28;20051;-52
2022/08/18 01:48:15;;;;;;;6.20;3.58;;;18.60;99.90;;;;;;4945231;28;20027;-50
2022/08/18 01:50:43;;;;;;;4.40;3.78;;;18.60;99.90;;;;;;4943468;28;20034;-55
2022/08/18 01:53:10;;;;;;;4.35;3.88;;;18.60;99.90;;;;;;4944179;29;20036;-50
2022/08/18 01:55:38;;;;;;;4.22;3.67;;;18.60;99.90;;;;;;4943787;28;20015;-49
2022/08/18 01:58:06;;;;;;;4.95;4.40;;;18.60;99.90;;;;;;4943483;29;20491;-50
2022/08/18 02:00:32;;;;;;;4.35;3.95;;;18.60;99.90;;;;;;4944962;28;20074;-50
2022/08/18 02:03:00;;;;;;;6.38;4.30;;;18.60;99.90;;;;;;4943863;28;20078;-50
2022/08/18 02:05:41;;;;;;;4.03;3.72;;;18.60;99.90;;;;;;4944804;28;20023;-51
2022/08/18 02:08:07;;;;;;;5.65;3.63;;;18.60;99.90;;;;;;4942691;28;20120;-50
2022/08/18 02:10:33;;;;;;;4.85;4.28;;;18.50;99.90;;;;;;4944626;28;20460;-51
2022/08/18 02:12:58;;;;;;;4.28;3.72;;;18.50;99.90;;;;;;4942664;28;20036;-51
2022/08/18 02:15:24;;;;;;;3.90;3.40;;;18.50;99.90;;;;;;4944827;28;20019;-51
2022/08/18 02:17:50;;;;;;;8.27;3.92;;;18.50;99.90;;;;;;4943857;28;20047;-52
2022/08/18 02:20:17;;;;;;;5.97;4.20;;;18.50;99.90;;;;;;4944536;28;20399;-52
2022/08/18 02:22:45;;;;;;;4.07;3.78;;;18.50;99.90;;;;;;4944046;28;20031;-51
2022/08/18 02:25:11;;;;;;;4.70;3.78;;;18.50;99.90;;;;;;4942011;28;20027;-50
2022/08/18 02:27:37;;;;;;;6.88;3.72;;;18.50;99.90;;;;;;4943930;28;20024;-50
2022/08/18 02:30:07;;;;;;;4.10;3.47;;;18.50;99.90;;;;;;4942669;28;20028;-50
2022/08/18 02:32:33;;;;;;;6.03;3.28;;;18.50;99.90;;;;;;4944217;28;20098;-53
2022/08/18 02:34:59;;;;;;;3.63;3.20;;;18.50;99.90;;;;;;4942315;28;20147;-52
2022/08/18 02:37:24;;;;;;;4.63;3.53;;;18.50;99.90;;;;;;4944320;28;20031;-53
2022/08/18 02:39:50;;;;;;;5.07;4.10;;;18.50;99.90;;;;;;4944033;28;20734;-56
2022/08/18 02:42:16;;;;;;;5.47;3.55;;;18.50;99.90;;;;;;4941849;29;20050;-50
2022/08/18 02:44:42;;;;;;;5.15;3.58;;;18.50;99.90;;;;;;4943716;28;20102;-49
2022/08/18 02:47:08;;;;;;;4.10;3.72;;;18.50;99.90;;;;;;4941726;28;20054;-52
2022/08/18 02:49:35;;;;;;;3.35;3.05;;;18.40;99.90;;;;;;4940815;29;20031;-49
2022/08/18 02:52:01;;;;;;;7.70;4.13;;;18.40;99.90;;;;;;4945802;29;20404;-54
2022/08/18 02:54:27;;;;;;;4.53;3.85;;;18.40;99.90;;;;;;4940401;29;20020;-53
2022/08/18 02:56:53;;;;;;;7.22;3.85;;;18.40;99.90;;;;;;4945608;29;20031;-50
2022/08/18 02:59:23;;;;;;;5.25;4.00;;;18.40;99.90;;;;;;4940423;29;20034;-50
2022/08/18 03:01:52;;;;;;;4.05;3.67;;;18.40;99.90;;;;;;4947364;29;20030;-52
2022/08/18 03:04:26;;;;;;;5.18;4.13;;;18.40;99.90;;;;;;4939728;29;20027;-52
2022/08/18 03:06:55;;;;;;;5.05;4.25;;;18.30;99.90;;;;;;4940847;29;20500;-54
2022/08/18 03:09:21;;;;;;;3.83;3.53;;;18.30;99.90;;;;;;4943640;28;20027;-52
2022/08/18 03:11:47;;;;;;;4.20;3.80;;;18.30;99.90;;;;;;4940165;29;20111;-51
2022/08/18 03:14:14;;;;;;;5.20;3.55;;;18.20;99.90;;;;;;4946927;29;20111;-50
2022/08/18 03:16:42;;;;;;;5.55;3.88;;;18.20;99.90;;;;;;4940550;29;20499;-50
2022/08/18 03:19:08;;;;;;;5.60;4.28;;;18.20;99.90;;;;;;4945921;29;20098;-53
2022/08/18 03:21:36;;;;;;;4.53;4.13;;;18.10;99.90;;;;;;4939995;29;20051;-50
2022/08/18 03:24:03;;;;;;;6.15;4.60;;;18.10;99.90;;;;;;4946302;29;20539;-51
2022/08/18 03:26:30;;;;;;;4.43;4.00;;;18.10;99.90;;;;;;4940327;29;20034;-51
2022/08/18 03:28:57;;;;;;;5.43;4.93;;;18.10;99.90;;;;;;4947132;29;20122;-50
2022/08/18 03:31:24;;;;;;;5.57;4.63;;;18.00;99.90;;;;;;4939734;29;20024;-50
2022/08/18 03:33:51;;;;;;;5.75;4.72;;;18.00;99.90;;;;;;4948070;29;20110;-50
2022/08/18 03:36:21;;;;;;;4.80;4.38;;;17.90;99.90;;;;;;4940237;29;20015;-50
2022/08/18 03:38:47;;;;;;;5.75;5.25;;;17.90;99.90;;;;;;4939730;29;20016;-51
2022/08/18 03:41:15;;;;;;;5.53;4.60;;;17.90;99.90;;;;;;4945904;29;20102;-49
2022/08/18 03:43:41;;;;;;;6.38;5.78;;;17.90;99.90;;;;;;4939995;29;20043;-50
2022/08/18 03:46:09;;;;;;;5.50;4.95;;;17.80;99.90;;;;;;4941545;29;20058;-52
2022/08/18 03:48:39;;;;;;;5.47;4.75;;;17.80;99.90;;;;;;4943277;28;20029;-50
2022/08/18 03:51:11;;;;;;;5.05;4.57;;;17.80;99.90;;;;;;4940794;28;20023;-54
2022/08/18 03:53:37;;;;;;;5.30;4.80;;;17.80;99.90;;;;;;4943644;28;20542;-49
2022/08/18 03:56:14;;;;;;;6.15;5.55;;;17.80;99.90;;;;;;4941861;28;20059;-54
2022/08/18 03:59:02;;;;;;;7.50;5.75;;;17.70;99.90;;;;;;4943467;28;20028;-49
2022/08/18 04:01:31;;;;;;;6.30;5.70;;;17.80;99.90;;;;;;4937986;29;20399;-50
2022/08/18 04:04:01;;;;;;;6.95;5.50;;;17.70;99.90;;;;;;4941933;28;20027;-50
2022/08/18 04:06:30;;;;;;;6.47;5.88;;;17.70;99.90;;;;;;4939875;29;20024;-53
2022/08/18 04:08:59;;;;;;;6.10;5.60;;;17.70;99.90;;;;;;4946241;29;20031;-52
2022/08/18 04:11:27;;;;;;;5.60;5.10;;;17.70;99.90;;;;;;4940982;28;20027;-50
2022/08/18 04:13:56;;;;;;;6.50;5.90;;;17.60;99.90;;;;;;4944687;29;20027;-50
2022/08/18 04:16:26;;;;;;;6.32;5.82;;;17.60;99.90;;;;;;4939600;29;20027;-50
2022/08/18 04:18:51;;;;;;;6.32;5.70;;;17.60;99.90;;;;;;4946852;29;20031;-53
2022/08/18 04:21:17;;;;;;;6.15;5.65;;;17.60;99.90;;;;;;4939165;29;20020;-50
2022/08/18 04:23:43;;;;;;;7.05;6.13;;;17.60;99.90;;;;;;4939584;29;20028;-49
2022/08/18 04:26:13;;;;;;;7.45;6.75;;;17.60;99.90;;;;;;4944174;29;20035;-51
2022/08/18 04:28:41;;;;;;;6.50;6.00;;;17.60;99.90;;;;;;4935449;29;20015;-51
2022/08/18 04:31:09;;;;;;;6.88;6.28;;;17.60;99.90;;;;;;4946052;29;20034;-49
2022/08/18 04:33:35;;;;;;;6.60;5.88;;;17.60;99.90;;;;;;4939717;29;20047;-49
2022/08/18 04:36:09;;;;;;;8.15;7.45;;;17.60;99.90;;;;;;4946941;29;20504;-50
2022/08/18 04:38:34;;;;;;;7.95;7.25;;;17.60;99.90;;;;;;4939362;29;20023;-49
2022/08/18 04:41:00;;;;;;;8.20;7.45;;;17.60;99.90;;;;;;4941502;29;20556;-52
2022/08/18 04:43:26;;;;;;;7.45;6.85;;;17.70;99.90;;;;;;4943054;28;20075;-49
2022/08/18 04:45:51;;;;;;;7.68;6.97;;;17.60;99.90;;;;;;4942195;29;20196;-51
2022/08/18 04:48:17;;;;;;;7.15;6.50;;;17.70;99.90;;;;;;4943031;28;20035;-50
2022/08/18 04:50:42;;;;;;;8.20;7.50;;;17.60;99.90;;;;;;4941716;28;20534;-52
2022/08/18 04:55:54;;;;;;;7.93;7.22;;;17.70;99.90;;;;;;4944936;29;20082;-51
2022/08/18 04:58:23;;;;;;;9.75;8.32;;;17.80;99.90;;;;;;4946126;28;20075;-50
2022/08/18 05:01:00;;;;;;;7.68;7.03;;;17.80;99.90;;;;;;4945452;28;20027;-52
2022/08/18 05:03:26;;;;;;;8.98;7.60;;;17.80;99.90;;;;;;4938357;29;20054;-49
2022/08/18 05:05:58;;;;;;;8.63;7.32;;;17.90;99.90;;;;;;4945112;28;20085;-50
2022/08/18 05:08:25;;;;;;;12.70;8.60;;;17.90;99.90;;;;;;4945317;29;20031;-49
2022/08/18 05:10:58;;;;;;;8.63;7.85;;;18.00;99.90;;;;;;4945280;28;20043;-51
2022/08/18 05:13:25;;;;;;;8.70;7.90;;;18.00;99.90;;;;;;4939078;29;20045;-50
2022/08/18 05:16:02;;;;;;;8.35;7.65;;;18.00;99.90;;;;;;4945935;28;20050;-50
2022/08/18 05:18:32;;;;;;;9.07;8.27;;;18.10;99.90;;;;;;4941835;29;20427;-49
2022/08/18 05:20:59;;;;;;;10.15;9.10;;;18.10;99.90;;;;;;4944411;28;20487;-50
2022/08/18 05:23:25;;;;;;;8.60;7.80;;;18.10;99.90;;;;;;4941367;29;20512;-52
2022/08/18 05:25:57;;;;;;;9.10;8.30;;;18.20;99.90;;;;;;4947905;29;20031;-50
2022/08/18 05:28:22;;;;;;;9.07;8.25;;;18.20;99.90;;;;;;4942083;29;20861;-49
2022/08/18 05:30:48;;;;;;;9.40;8.60;;;18.20;99.90;;;;;;4948545;29;20035;-49
2022/08/18 05:33:14;;;;;;;8.95;8.15;;;18.20;99.90;;;;;;4937896;29;20031;-51
2022/08/18 05:35:46;;;;;;;10.48;9.50;;;18.30;99.90;;;;;;4948858;29;20032;-50
2022/08/18 05:38:31;;;;;;;9.48;8.68;;;18.30;99.90;;;;;;4942474;28;20051;-50
2022/08/18 05:41:26;;;;;;;8.80;8.10;;;18.40;99.90;;;;;;4943488;29;20024;-50
2022/08/18 05:43:53;;;;;;;10.60;9.60;;;18.40;99.90;;;;;;4942373;29;20040;-52
2022/08/18 05:46:24;;;;;;;10.43;9.38;;;18.50;99.90;;;;;;4945346;28;20510;-49
2022/08/18 05:48:50;;;;;;;10.65;9.55;;;18.50;99.90;;;;;;4945143;28;20039;-50
2022/08/18 05:51:31;;;;;;;10.63;9.60;;;18.50;99.90;;;;;;4942709;29;20459;-51
2022/08/18 05:57:04;;;;;;;10.35;9.35;;;18.60;99.90;;;;;;4945602;29;20554;-53
2022/08/18 05:59:35;;;;;;;12.32;10.30;;;18.80;99.90;;;;;;4938830;29;20035;-50
2022/08/18 06:02:10;;;;;;;11.85;10.73;;;18.80;99.90;;;;;;4948558;28;20055;-49
2022/08/18 06:04:44;;;;;;;11.73;10.40;;;18.90;99.90;;;;;;4941102;29;20032;-51
2022/08/18 06:07:15;;;;;;;10.77;9.80;;;18.90;99.90;;;;;;4944507;29;20035;-49
2022/08/18 06:09:52;;;;;;;11.30;10.25;;;19.00;99.90;;;;;;4943850;28;20028;-51
2022/08/18 06:12:32;;;;;;;11.43;10.40;;;19.10;99.90;;;;;;4930525;29;20031;-53
2022/08/18 06:15:36;;;;;;;11.05;10.05;;;19.20;99.90;;;;;;4943636;28;20008;-53
2022/08/18 06:18:10;;;;;;;11.57;10.57;;;19.20;99.90;;;;;;4933678;29;20039;-53
2022/08/18 06:20:54;;;;;;;13.48;10.98;;;19.30;99.90;;;;;;4944604;28;20031;-52
2022/08/18 06:23:26;;;;;;;11.63;10.52;;;19.30;99.90;;;;;;4938898;29;20436;-48
2022/08/18 06:26:06;;;;;;;11.18;10.07;;;19.30;99.90;;;;;;4947127;29;20511;-49
2022/08/18 06:28:51;;;;;;;11.55;10.50;;;19.40;99.90;;;;;;4941175;29;20400;-49
2022/08/18 06:31:28;;;;;;;12.05;10.82;;;19.40;99.90;;;;;;4934797;29;20119;-54
2022/08/18 06:34:09;;;;;;;11.32;10.27;;;19.40;99.90;;;;;;4939252;29;20098;-50
2022/08/18 06:36:44;;;;;;;10.80;9.85;;;19.40;99.90;;;;;;4945535;28;20066;-50
2022/08/18 06:39:35;;;;;;;11.75;10.38;;;19.50;99.90;;;;;;4943979;29;20031;-53
2022/08/18 06:42:04;;;;;;;14.15;10.98;;;19.60;99.90;;;;;;4941330;28;20027;-50
2022/08/18 06:44:43;;;;;;;11.43;10.38;;;19.70;99.90;;;;;;4943695;28;20029;-52
2022/08/18 06:47:16;;;;;;;11.52;10.55;;;19.70;99.90;;;;;;4941732;28;20074;-51
2022/08/18 06:50:01;;;;;;;10.98;10.07;;;19.80;99.90;;;;;;4941022;29;20550;-51
2022/08/18 06:52:29;;;;;;;12.02;10.95;;;19.90;99.90;;;;;;4936923;29;20107;-49
2022/08/18 06:55:04;;;;;;;12.88;11.63;;;20.00;99.90;;;;;;4941944;29;20055;-51
2022/08/18 06:57:34;;;;;;;12.55;11.00;;;20.10;99.90;;;;;;4945170;28;20095;-52
2022/08/18 07:00:23;;;;;;;13.57;12.27;;;20.20;99.90;;;;;;4942078;29;20123;-50
2022/08/18 07:03:13;;;;;;;13.20;11.82;;;20.30;99.90;;;;;;4943137;28;20024;-50
2022/08/18 07:05:55;;;;;;;13.38;12.07;;;20.50;99.90;;;;;;4936844;29;20589;-51
2022/08/18 07:08:42;;;;;;;15.93;13.38;;;20.60;99.90;;;;;;4935719;29;20030;-51
2022/08/18 07:11:28;;;;;;;14.00;12.70;;;20.80;99.90;;;;;;4940914;28;20046;-52
2022/08/18 07:14:11;;;;;;;;;;;20.90;99.90;;;;;;4947114;28;20062;-50
2022/08/18 07:16:38;;;;;;;14.75;13.40;;;21.00;99.90;;;;;;4940539;29;19910;-52
2022/08/18 07:19:10;;;;;;;14.18;12.80;;;21.10;99.90;;;;;;4947867;29;20085;-54
2022/08/18 07:21:39;;;;;;;14.68;13.13;;;21.10;99.90;;;;;;4940085;29;20019;-51
2022/08/18 07:24:21;;;;;;;14.27;12.93;;;21.10;99.90;;;;;;4942664;29;20545;-52
2022/08/18 07:26:57;;;;;;;13.70;12.40;;;21.10;99.90;;;;;;4942216;28;20027;-51
2022/08/18 07:29:22;;;;;;;15.10;13.50;;;21.10;99.90;;;;;;4931338;29;20031;-51
2022/08/18 07:31:50;;;;;;;16.48;14.70;;;21.20;99.90;;;;;;4942030;28;20028;-52
2022/08/18 07:34:39;;;;;;;16.85;14.02;;;21.20;99.90;;;;;;4930340;29;20512;-51
2022/08/18 07:37:08;;;;;;;18.52;16.73;;;21.20;99.90;;;;;;4943100;28;20078;-50
2022/08/18 07:39:53;;;;;;;21.65;17.67;;;21.20;99.90;;;;;;4943778;28;20027;-55
2022/08/18 07:42:43;;;;;;;25.80;23.15;;;21.20;99.90;;;;;;4934374;29;20033;-51
2022/08/18 07:45:31;;;;;;;25.75;23.08;;;21.20;99.90;;;;;;4940259;28;20032;-51
2022/08/18 07:48:00;;;;;;;27.35;24.38;;;21.10;99.90;;;;;;4935657;29;20345;-51
2022/08/18 07:50:27;;;;;;;33.42;27.30;;;21.10;99.90;;;;;;4943563;28;20023;-52
2022/08/18 07:53:11;;;;;;;35.08;26.85;;;21.00;99.90;;;;;;4941071;28;20455;-49
2022/08/18 07:55:42;;;;;;;30.67;26.00;;;20.90;99.90;;;;;;4943745;28;20503;-50
2022/08/18 07:58:33;;;;;;;36.75;27.15;;;20.80;99.90;;;;;;4942119;29;20106;-54
2022/08/18 08:01:48;;;;;;;32.00;25.02;;;20.80;99.90;;;;;;4943256;28;20372;-51
2022/08/18 08:04:22;;;;;;;36.70;26.42;;;20.70;99.90;;;;;;4914028;29;20067;-49
2022/08/18 08:06:58;;;;;;;39.08;26.33;;;20.70;99.90;;;;;;4936635;29;20511;-50
2022/08/18 08:09:33;;;;;;;36.20;27.02;;;20.70;99.90;;;;;;4936057;29;20412;-50
2022/08/18 08:12:08;;;;;;;38.08;29.27;;;20.70;99.90;;;;;;4942787;29;20028;-51
2022/08/18 08:14:44;;;;;;;34.60;27.70;;;20.70;99.90;;;;;;4943710;28;20599;-53
2022/08/18 08:17:22;;;;;;;34.67;26.88;;;20.70;99.90;;;;;;4942925;29;20019;-49
2022/08/18 08:20:00;;;;;;;30.50;24.17;;;20.70;99.90;;;;;;4942903;28;20020;-52
2022/08/18 08:22:40;;;;;;;27.98;22.67;;;20.70;99.90;;;;;;4937950;29;20031;-51
2022/08/18 08:25:09;;;;;;;24.85;21.17;;;20.70;99.90;;;;;;4941106;28;20031;-50
2022/08/18 08:27:44;;;;;;;24.45;20.77;;;20.70;99.90;;;;;;4946718;28;20034;-51
2022/08/18 08:30:18;;;;;;;28.57;22.37;;;20.70;99.90;;;;;;4945272;28;20034;-54
2022/08/18 08:33:03;;;;;;;26.63;22.30;;;20.70;99.90;;;;;;4946890;28;20039;-50
2022/08/18 08:35:53;;;;;;;27.20;22.58;;;20.70;99.90;;;;;;4942681;29;20459;-51
2022/08/18 08:38:31;;;;;;;30.33;24.45;;;20.70;99.90;;;;;;4939599;29;20070;-50
2022/08/18 08:41:02;;;;;;;29.33;22.92;;;20.70;99.90;;;;;;4944824;29;20094;-54
2022/08/18 08:43:37;;;;;;;30.63;23.45;;;20.80;99.90;;;;;;4947264;28;20070;-54
2022/08/18 08:46:07;;;;;;;27.70;21.77;;;20.70;99.90;;;;;;4944566;29;20024;-50
2022/08/18 08:48:40;;;;;;;28.48;22.42;;;20.80;99.90;;;;;;4946969;28;20018;-53
2022/08/18 08:51:27;;;;;;;31.83;24.80;;;20.80;99.90;;;;;;4944066;28;20034;-57
2022/08/18 08:54:13;;;;;;;29.27;22.63;;;20.90;99.90;;;;;;4946279;28;20110;-53
2022/08/18 08:56:49;;;;;;;28.50;21.58;;;21.00;99.90;;;;;;4943696;29;20450;-54
2022/08/18 08:59:17;;;;;;;25.60;20.60;;;21.00;99.90;;;;;;4939071;29;20100;-53
2022/08/18 09:02:03;;;;;;;22.58;20.17;;;21.20;99.90;;;;;;4949306;29;20031;-55
2022/08/18 09:04:58;;;;;;;22.85;20.13;;;21.20;99.90;;;;;;4939922;29;20059;-54
2022/08/18 09:08:05;;;;;;;23.77;20.55;;;21.30;99.90;;;;;;4936574;29;20046;-53
2022/08/18 09:10:40;;;;;;;29.65;22.20;;;21.30;99.90;;;;;;4938294;29;20027;-54
2022/08/18 09:13:23;;;;;;;24.23;21.58;;;21.30;99.90;;;;;;4944927;28;20118;-55
2022/08/18 09:16:12;;;;;;;21.88;19.42;;;21.40;99.90;;;;;;4945085;28;20019;-57
2022/08/18 09:19:16;;;;;;;23.38;20.75;;;21.50;99.90;;;;;;4945431;29;20051;-55
2022/08/18 09:22:28;;;;;;;22.27;19.90;;;21.60;99.90;;;;;;4940504;29;20047;-52
2022/08/18 09:24:54;;;;;;;22.92;20.30;;;21.70;99.90;;;;;;4935008;29;20525;-53
2022/08/18 09:27:42;;;;;;;21.98;18.23;;;21.80;99.90;;;;;;4946014;28;20035;-51
2022/08/18 09:30:51;;;;;;;25.98;19.63;;;21.80;99.90;;;;;;4944196;28;20110;-52
2022/08/18 09:33:38;;;;;;;25.70;20.27;;;21.80;99.90;;;;;;4915911;29;20032;-58
2022/08/18 09:36:20;;;;;;;25.80;21.60;;;21.90;99.90;;;;;;4950052;29;20028;-53
2022/08/18 09:41:59;;;;;;;24.02;19.58;;;21.90;99.90;;;;;;4935750;29;20026;-57
2022/08/18 09:44:46;;;;;;;25.02;20.95;;;22.00;99.90;;;;;;4935391;29;20031;-56
2022/08/18 09:47:23;;;;;;;25.17;21.23;;;22.00;99.90;;;;;;4942978;28;20481;-58
2022/08/18 09:49:56;;;;;;;27.98;20.40;;;22.10;99.90;;;;;;4942593;29;20043;-54
2022/08/18 09:52:22;;;;;;;23.40;20.73;;;22.20;99.90;;;;;;4937420;29;20079;-54
2022/08/18 09:54:58;;;;;;;20.92;18.30;;;22.30;99.90;;;;;;4942376;29;20032;-56
2022/08/18 09:57:25;;;;;;;22.95;19.55;;;22.50;99.90;;;;;;4936825;29;20095;-52
2022/08/18 09:59:55;;;;;;;23.95;20.23;;;22.60;99.90;;;;;;4942216;29;20019;-54
2022/08/18 10:02:34;;;;;;;23.15;20.67;;;22.70;99.90;;;;;;4948003;28;20121;-55
2022/08/18 10:05:15;;;;;;;23.20;20.70;;;22.80;99.90;;;;;;4941420;29;20028;-55
2022/08/18 10:07:54;;;;;;;25.95;21.20;;;22.90;99.90;;;;;;4943747;28;20563;-55
2022/08/18 10:10:26;;;;;;;24.00;21.40;;;22.80;99.90;;;;;;4934028;29;20023;-56
2022/08/18 10:13:03;;;;;;;23.10;18.92;;;22.80;99.90;;;;;;4941827;28;20602;-55
2022/08/18 10:15:47;;;;;;;23.35;20.83;;;22.80;99.90;;;;;;4945093;28;20027;-55
2022/08/18 10:18:41;;;;;;;22.58;19.90;;;22.80;99.90;;;;;;4944573;28;20019;-56
2022/08/18 10:21:18;;;;;;;24.02;20.98;;;22.80;99.90;;;;;;4936174;29;20082;-55
2022/08/18 10:23:46;;;;;;;23.02;20.08;;;22.90;99.90;;;;;;4936457;29;20028;-54
2022/08/18 10:26:29;;;;;;;22.58;20.17;;;22.90;99.90;;;;;;4947495;29;20078;-55
2022/08/18 10:29:10;;;;;;;22.67;18.70;;;22.80;99.90;;;;;;4939969;29;20031;-56
2022/08/18 10:31:57;;;;;;;26.27;19.98;;;22.80;99.90;;;;;;4944725;28;20059;-54
2022/08/18 10:34:41;;;;;;;21.05;18.50;;;22.80;99.90;;;;;;4933337;29;20111;-57
2022/08/18 10:37:22;;;;;;;21.75;18.83;;;22.80;99.90;;;;;;4942813;28;20112;-55
2022/08/18 10:40:03;;;;;;;24.17;21.17;;;22.90;99.90;;;;;;4944693;28;20483;-56
2022/08/18 10:42:39;;;;;;;20.88;18.83;;;23.10;99.90;;;;;;4938140;29;20027;-55
2022/08/18 10:45:09;;;;;;;22.25;19.45;;;23.10;99.90;;;;;;4941594;28;20034;-56
2022/08/18 10:47:35;;;;;;;22.25;19.73;;;23.20;99.90;;;;;;4941009;29;20024;-56
2022/08/18 10:50:17;;;;;;;20.25;17.90;;;23.30;99.90;;;;;;4942245;28;20019;-54
2022/08/18 10:53:04;;;;;;;21.30;19.08;;;23.30;99.90;;;;;;4943149;28;20027;-55
2022/08/18 10:56:10;;;;;;;24.15;19.98;;;23.30;99.90;;;;;;4933950;29;20019;-54
2022/08/18 10:59:23;;;;;;;23.73;20.48;;;23.30;99.90;;;;;;4897141;29;20533;-57
2022/08/18 11:02:09;;;;;;;26.58;22.02;;;23.30;99.90;;;;;;4897137;29;20044;-55
2022/08/18 11:04:41;;;;;;;21.60;18.02;;;23.30;99.90;;;;;;4937515;29;20131;-56
2022/08/18 11:07:14;;;;;;;21.20;18.23;;;23.30;99.90;;;;;;4943390;29;20103;-55
2022/08/18 11:09:42;;;;;;;21.42;18.83;;;23.30;99.90;;;;;;4943079;28;20513;-55
2022/08/18 11:12:10;;;;;;;20.00;17.25;;;23.40;99.90;;;;;;4942618;29;20059;-56
2022/08/18 11:14:55;;;;;;;21.35;17.10;;;23.40;99.90;;;;;;4944230;28;20099;-55
2022/08/18 11:17:51;;;;;;;19.05;16.33;;;23.50;99.90;;;;;;4931828;29;20026;-56
2022/08/18 11:20:19;;;;;;;17.77;15.97;;;23.70;99.90;;;;;;4944137;28;20126;-57
2022/08/18 11:23:00;;;;;;;18.23;16.38;;;23.80;99.90;;;;;;4942975;28;20031;-54
2022/08/18 11:25:38;;;;;;;19.70;17.23;;;24.00;99.90;;;;;;4936978;29;20114;-54
2022/08/18 11:28:17;;;;;;;20.63;18.58;;;24.00;99.90;;;;;;4941669;28;20110;-51
2022/08/18 11:30:46;;;;;;;18.77;16.88;;;24.10;99.90;;;;;;4945304;29;20038;-54
2022/08/18 11:33:17;;;;;;;22.45;20.10;;;24.10;99.90;;;;;;4940512;28;20020;-55
2022/08/18 11:35:47;;;;;;;22.45;19.90;;;24.10;99.90;;;;;;4947386;29;20019;-57
2022/08/18 11:38:15;;;;;;;19.70;17.65;;;24.20;99.90;;;;;;4939017;28;20048;-58
2022/08/18 11:40:44;;;;;;;19.17;17.10;;;24.30;99.90;;;;;;4940292;29;20032;-56
2022/08/18 11:43:16;;;;;;;16.73;15.02;;;24.40;99.90;;;;;;4944227;29;20035;-58
2022/08/18 11:45:50;;;;;;;18.00;16.23;;;24.40;99.90;;;;;;4936071;29;20043;-55
2022/08/18 11:48:28;;;;;;;16.23;14.63;;;24.40;99.90;;;;;;4931226;29;20027;-55
2022/08/18 11:50:53;;;;;;;16.70;15.10;;;24.40;99.90;;;;;;4942503;28;20035;-52
2022/08/18 11:53:22;;;;;;;16.42;14.82;;;24.50;99.90;;;;;;4943440;28;20057;-52
2022/08/18 11:56:23;;;;;;;16.63;14.93;;;24.50;99.90;;;;;;4941048;28;20042;-57
2022/08/18 11:59:34;;;;;;;15.55;14.00;;;24.50;99.90;;;;;;4941181;29;20027;-54
2022/08/18 12:02:00;;;;;;;14.32;12.95;;;24.50;99.90;;;;;;4948422;29;20019;-51
2022/08/18 12:04:37;;;;;;;17.55;13.77;;;24.50;99.90;;;;;;4943954;29;20019;-53
2022/08/18 12:07:09;;;;;;;13.57;12.27;;;24.60;99.90;;;;;;4946087;29;20464;-51
2022/08/18 12:09:42;;;;;;;14.35;12.95;;;24.60;99.90;;;;;;4945965;28;20040;-52
2022/08/18 12:12:30;;;;;;;13.55;12.32;;;24.50;99.90;;;;;;4946301;29;20040;-54
2022/08/18 12:14:55;;;;;;;13.13;11.88;;;24.60;99.90;;;;;;4946207;28;20026;-51
2022/08/18 12:17:21;;;;;;;12.90;11.52;;;24.70;99.90;;;;;;4947650;28;20023;-51
2022/08/18 12:19:47;;;;;;;14.02;12.68;;;24.80;99.90;;;;;;4945504;28;20059;-51
2022/08/18 12:22:19;;;;;;;13.65;12.25;;;24.80;99.90;;;;;;4946231;29;20436;-51
2022/08/18 12:24:46;;;;;;;12.90;11.77;;;24.90;99.90;;;;;;4945590;28;20063;-54
2022/08/18 12:27:14;;;;;;;15.27;13.88;;;25.00;99.90;;;;;;4946630;28;20090;-54
2022/08/18 12:29:40;;;;;;;14.45;12.95;;;25.00;99.90;;;;;;4946815;28;20118;-54
2022/08/18 12:32:06;;;;;;;14.98;13.02;;;25.10;99.90;;;;;;4945630;29;20031;-57
2022/08/18 12:34:32;;;;;;;14.68;13.23;;;25.20;99.90;;;;;;4946829;28;20439;-55
2022/08/18 12:37:01;;;;;;;15.27;13.77;;;25.30;99.90;;;;;;4946197;28;20095;-54
2022/08/18 12:39:28;;;;;;;14.10;12.82;;;25.20;99.90;;;;;;4946925;28;20027;-56
2022/08/18 12:41:55;;;;;;;12.95;11.07;;;25.20;99.90;;;;;;4943793;28;20020;-55
2022/08/18 12:44:20;;;;;;;14.60;13.10;;;25.20;99.90;;;;;;4946404;28;20102;-51
2022/08/18 12:46:46;;;;;;;12.20;11.00;;;25.20;99.90;;;;;;4946777;28;20106;-51
2022/08/18 12:49:21;;;;;;;11.95;10.75;;;25.20;99.90;;;;;;4943467;28;20344;-52
2022/08/18 12:51:47;;;;;;;14.30;11.68;;;25.20;99.90;;;;;;4948608;29;20424;-52
2022/08/18 12:54:13;;;;;;;13.57;12.27;;;25.20;99.90;;;;;;4943267;28;20043;-51
2022/08/18 12:56:40;;;;;;;12.90;10.93;;;25.20;99.90;;;;;;4948332;29;20073;-52
2022/08/18 12:59:07;;;;;;;12.30;11.20;;;25.20;99.90;;;;;;4943922;28;20513;-53
2022/08/18 13:01:35;;;;;;;12.02;10.30;;;25.30;99.90;;;;;;4946478;29;20034;-50
2022/08/18 13:04:02;;;;;;;11.30;9.40;;;25.50;99.90;;;;;;4944367;28;20020;-54
2022/08/18 13:06:28;;;;;;;10.80;9.80;;;25.50;99.90;;;;;;4942796;29;20015;-52
2022/08/18 13:08:54;;;;;;;10.50;9.50;;;25.50;99.90;;;;;;4947491;29;20038;-53
2022/08/18 13:11:21;;;;;;;11.75;10.57;;;25.50;99.90;;;;;;4941939;29;20053;-53
2022/08/18 13:13:47;;;;;;;11.77;10.73;;;25.60;99.90;;;;;;4949284;29;20125;-54
2022/08/18 13:16:14;;;;;;;12.23;11.00;;;25.70;99.90;;;;;;4941716;28;20020;-52
2022/08/18 13:18:40;;;;;;;12.23;10.93;;;25.80;99.90;;;;;;4949234;29;20117;-55
2022/08/18 13:21:08;;;;;;;11.63;9.52;;;25.90;99.90;;;;;;4943755;28;20574;-55